createdAt,value
2023-05-09T00:02:02.445Z,102034.81
2023-05-09T00:04:39.514Z,102032.11
2023-05-09T00:07:17.049Z,102030.29
2023-05-09T00:09:54.007Z,102032.21
2023-05-09T00:12:31.318Z,102031.14
2023-05-09T00:15:10.049Z,102026.31
2023-05-09T00:17:41.439Z,102030.58
2023-05-09T00:20:13.140Z,102027.92
2023-05-09T00:22:49.911Z,102031.65
2023-05-09T00:25:20.119Z,102026.77
2023-05-09T00:27:57.900Z,102023.45
2023-05-09T00:30:35.063Z,102027.17
2023-05-09T00:33:12.607Z,102020.63
2023-05-09T00:35:49.108Z,102023.36
2023-05-09T00:38:24.279Z,102020.73
2023-05-09T00:40:56.702Z,102023.36
2023-05-09T00:43:32.054Z,102018.35
2023-05-09T00:46:10.086Z,102022.71
2023-05-09T00:48:46.806Z,102024.98
2023-05-09T00:51:24.008Z,102017.88
2023-05-09T00:54:01.485Z,102001.84
2023-05-09T00:56:38.631Z,102017.91
2023-05-09T00:59:19.357Z,102017.71
2023-05-09T01:01:56.583Z,102005.73
2023-05-09T01:04:33.545Z,102015.59
2023-05-09T01:07:40.883Z,102017.45
2023-05-09T01:10:31.779Z,102017.97
2023-05-09T01:13:26.682Z,102016.41
2023-05-09T01:16:13.202Z,102017.36
2023-05-09T01:19:04.698Z,102016.23
2023-05-09T01:21:38.439Z,102016.99
2023-05-09T01:25:03.327Z,102019.08
2023-05-09T01:28:18.384Z,102022.09
2023-05-09T01:30:53.388Z,102017.75
2023-05-09T01:33:29.341Z,102018.03
2023-05-09T01:36:13.753Z,102019.65
2023-05-09T01:38:50.932Z,102014.98
2023-05-09T01:41:32.696Z,102013.99
2023-05-09T01:44:12.230Z,102015.19
2023-05-09T01:46:49.579Z,102015.23
2023-05-09T01:49:27.843Z,102017.96
2023-05-09T01:52:14.294Z,102012.55
2023-05-09T01:54:51.923Z,102018.13
2023-05-09T01:57:29.259Z,102016.88
2023-05-09T02:00:08.410Z,102015.45
2023-05-09T02:02:46.221Z,102018.28
2023-05-09T02:05:25.926Z,102020.46
2023-05-09T02:08:03.588Z,102013.77
2023-05-09T02:10:41.802Z,102012.63
2023-05-09T02:13:19.831Z,102009.84
2023-05-09T02:15:52.229Z,102008.02
2023-05-09T02:18:23.744Z,102008.48
2023-05-09T02:21:01.612Z,102010.41
2023-05-09T02:23:32.252Z,102006.59
2023-05-09T02:26:12.151Z,102009.10
2023-05-09T02:28:46.766Z,102009.70
2023-05-09T02:31:29.065Z,102004.52
2023-05-09T02:34:10.189Z,102013.24
2023-05-09T02:36:48.124Z,102004.27
2023-05-09T02:39:26.024Z,102017.83
2023-05-09T02:42:11.843Z,102012.98
2023-05-09T02:44:45.895Z,102011.96
2023-05-09T02:47:19.176Z,102011.63
2023-05-09T02:49:57.403Z,102012.31
2023-05-09T02:52:34.252Z,102016.42
2023-05-09T02:55:12.544Z,102020.07
2023-05-09T02:57:56.246Z,102021.52
2023-05-09T03:00:42.581Z,102020.18
2023-05-09T03:03:19.497Z,102015.39
2023-05-09T03:05:56.740Z,102017.99
2023-05-09T03:08:34.256Z,102018.52
2023-05-09T03:11:11.785Z,102018.58
2023-05-09T03:13:49.265Z,102028.18
2023-05-09T03:16:27.151Z,102018.30
2023-05-09T03:19:04.637Z,102018.56
2023-05-09T03:21:35.776Z,102018.73
2023-05-09T03:24:11.886Z,102020.69
2023-05-09T03:26:49.480Z,102023.73
2023-05-09T03:29:27.290Z,102019.40
2023-05-09T03:32:05.876Z,102019.92
2023-05-09T03:34:43.538Z,102020.40
2023-05-09T03:37:20.796Z,102013.38
2023-05-09T03:39:57.908Z,102023.71
2023-05-09T03:42:35.749Z,102029.41
2023-05-09T03:45:06.756Z,102024.04
2023-05-09T03:47:43.838Z,102024.89
2023-05-09T03:50:14.350Z,102022.08
2023-05-09T03:52:51.795Z,102021.91
2023-05-09T03:55:28.918Z,102024.13
2023-05-09T03:58:07.188Z,102023.79
2023-05-09T04:00:44.908Z,102024.85
2023-05-09T04:03:22.603Z,102018.80
2023-05-09T04:06:00.157Z,102022.19
2023-05-09T04:08:38.419Z,102018.39
2023-05-09T04:11:15.997Z,102017.66
2023-05-09T04:13:54.353Z,102016.61
2023-05-09T04:16:31.841Z,102022.94
2023-05-09T04:19:09.611Z,102014.24
2023-05-09T04:21:46.287Z,102012.70
2023-05-09T04:24:19.381Z,102012.17
2023-05-09T04:26:53.484Z,102016.83
2023-05-09T04:29:30.889Z,102020.05
2023-05-09T04:32:10.304Z,102020.77
2023-05-09T04:34:47.613Z,102029.19
2023-05-09T04:37:24.990Z,102032.90
2023-05-09T04:40:07.168Z,102033.97
2023-05-09T04:42:44.397Z,102031.42
2023-05-09T04:45:22.272Z,102030.25
2023-05-09T04:48:00.113Z,102030.25
2023-05-09T04:50:37.637Z,102027.52
2023-05-09T04:53:08.620Z,102025.54
2023-05-09T04:55:46.238Z,102023.75
2023-05-09T04:58:16.611Z,102022.02
2023-05-09T05:00:54.008Z,102020.03
2023-05-09T05:03:29.800Z,102011.20
2023-05-09T05:06:13.607Z,102014.33
2023-05-09T05:08:54.784Z,102014.73
2023-05-09T05:11:35.054Z,102008.37
2023-05-09T05:14:17.055Z,102003.50
2023-05-09T05:16:55.590Z,102002.02
2023-05-09T05:19:35.700Z,102000.96
2023-05-09T05:22:08.343Z,101995.56
2023-05-09T05:24:53.436Z,101995.08
2023-05-09T05:27:35.813Z,101985.62
2023-05-09T05:30:16.926Z,101990.51
2023-05-09T05:32:56.165Z,101995.92
2023-05-09T05:35:36.107Z,101985.88
2023-05-09T05:38:13.456Z,101979.75
2023-05-09T05:40:51.192Z,101979.81
2023-05-09T05:43:29.407Z,101973.18
2023-05-09T05:46:07.437Z,101971.80
2023-05-09T05:48:38.419Z,101968.93
2023-05-09T05:51:16.779Z,101970.08
2023-05-09T05:53:50.338Z,101966.45
2023-05-09T05:56:28.242Z,101964.84
2023-05-09T05:58:58.472Z,101964.13
2023-05-09T06:01:35.777Z,101963.84
2023-05-09T06:04:09.068Z,101965.73
2023-05-09T06:06:47.117Z,101962.64
2023-05-09T06:09:24.913Z,101959.17
2023-05-09T06:12:03.304Z,101962.06
2023-05-09T06:14:41.876Z,101961.63
2023-05-09T06:17:19.991Z,101957.24
2023-05-09T06:19:58.134Z,101951.48
2023-05-09T06:22:36.315Z,101952.27
2023-05-09T06:25:15.354Z,101952.85
2023-05-09T06:27:53.240Z,101956.54
2023-05-09T06:30:31.605Z,101957.79
2023-05-09T06:33:10.252Z,101954.84
2023-05-09T06:35:44.701Z,101952.85
2023-05-09T06:38:17.772Z,101948.38
2023-05-09T06:40:56.210Z,101956.96
2023-05-09T06:43:35.036Z,101959.32
2023-05-09T06:46:13.927Z,101963.05
2023-05-09T06:48:51.832Z,101966.27
2023-05-09T06:51:25.584Z,101958.36
2023-05-09T06:54:03.866Z,101955.42
2023-05-09T06:56:41.818Z,101950.88
2023-05-09T06:59:20.971Z,101947.92
2023-05-09T07:01:59.674Z,101938.48
2023-05-09T07:04:38.391Z,101933.69
2023-05-09T07:07:10.077Z,101932.89
2023-05-09T07:09:40.541Z,101932.20
2023-05-09T07:12:18.680Z,101928.34
2023-05-09T07:14:57.717Z,101929.58
2023-05-09T07:17:37.383Z,101922.15
2023-05-09T07:20:15.998Z,101919.73
2023-05-09T07:22:54.657Z,101920.85
2023-05-09T07:25:28.422Z,101920.44
2023-05-09T07:28:06.968Z,101919.16
2023-05-09T07:30:51.787Z,101916.84
2023-05-09T07:33:23.382Z,101915.06
2023-05-09T07:36:03.148Z,101907.27
2023-05-09T07:38:42.846Z,101908.60
2023-05-09T07:41:14.256Z,101906.90
2023-05-09T07:43:51.267Z,101902.14
2023-05-09T07:46:23.265Z,101895.12
2023-05-09T07:49:00.041Z,101905.94
2023-05-09T07:51:38.650Z,101900.61
2023-05-09T07:54:17.101Z,101904.15
2023-05-09T07:56:56.855Z,101899.12
2023-05-09T07:59:35.543Z,101900.19
2023-05-09T08:02:14.862Z,101896.13
2023-05-09T08:04:51.289Z,101897.07
2023-05-09T08:07:30.760Z,101895.77
2023-05-09T08:10:10.152Z,101889.70
2023-05-09T08:12:48.517Z,101876.50
2023-05-09T08:15:27.910Z,101887.25
2023-05-09T08:18:07.222Z,101891.19
2023-05-09T08:20:45.963Z,101882.34
2023-05-09T08:23:25.746Z,101882.81
2023-05-09T08:26:05.778Z,101875.47
2023-05-09T08:28:45.798Z,101851.77
2023-05-09T08:31:24.774Z,101869.39
2023-05-09T08:34:04.441Z,101865.75
2023-05-09T08:36:46.038Z,101862.57
2023-05-09T08:39:26.412Z,101871.66
2023-05-09T08:42:09.014Z,101870.33
2023-05-09T08:44:47.014Z,101867.30
2023-05-09T08:47:26.977Z,101866.95
2023-05-09T08:49:58.778Z,101862.59
2023-05-09T08:52:41.236Z,101852.70
2023-05-09T08:55:20.353Z,101856.62
2023-05-09T08:57:59.626Z,101855.39
2023-05-09T09:00:41.603Z,101842.78
2023-05-09T09:03:12.710Z,101844.35
2023-05-09T09:05:45.206Z,101849.74
2023-05-09T09:08:23.192Z,101852.79
2023-05-09T09:11:02.105Z,101840.80
2023-05-09T09:13:44.140Z,101845.38
2023-05-09T09:16:23.243Z,101839.70
2023-05-09T09:19:02.472Z,101827.69
2023-05-09T09:21:44.110Z,101836.52
2023-05-09T09:24:24.193Z,101835.52
2023-05-09T09:27:06.595Z,101833.95
2023-05-09T09:29:42.753Z,101827.70
2023-05-09T09:32:23.204Z,101829.83
2023-05-09T09:35:09.462Z,101827.57
2023-05-09T09:37:43.842Z,101823.98
2023-05-09T09:40:24.068Z,101821.58
2023-05-09T09:43:03.239Z,101822.89
2023-05-09T09:45:43.253Z,101814.76
2023-05-09T09:48:23.876Z,101812.48
2023-05-09T09:51:13.889Z,101813.00
2023-05-09T09:53:45.213Z,101812.98
2023-05-09T09:56:23.644Z,101811.39
2023-05-09T09:59:16.795Z,101811.05
2023-05-09T10:02:08.437Z,101810.52
2023-05-09T10:04:48.163Z,101817.06
2023-05-09T10:07:26.889Z,101810.84
2023-05-09T10:10:06.458Z,101795.52
2023-05-09T10:12:48.312Z,101791.24
2023-05-09T10:15:35.652Z,101797.39
2023-05-09T10:18:25.726Z,101789.90
2023-05-09T10:21:04.451Z,101799.31
2023-05-09T10:23:49.211Z,101789.05
2023-05-09T10:26:31.754Z,101782.63
2023-05-09T10:29:12.747Z,101782.86
2023-05-09T10:31:44.887Z,101781.69
2023-05-09T10:34:29.051Z,101778.64
2023-05-09T10:37:05.358Z,101763.61
2023-05-09T10:39:38.285Z,101772.23
2023-05-09T10:42:16.676Z,101768.39
2023-05-09T10:44:55.885Z,101770.40
2023-05-09T10:47:35.845Z,101769.45
2023-05-09T10:50:19.221Z,101770.83
2023-05-09T10:53:22.150Z,101767.42
2023-05-09T10:56:04.547Z,101762.76
2023-05-09T10:58:44.269Z,101752.17
2023-05-09T11:01:37.905Z,101767.79
2023-05-09T11:04:13.433Z,101760.21
2023-05-09T11:06:58.925Z,101754.36
2023-05-09T11:09:42.134Z,101753.95
2023-05-09T11:12:27.497Z,101750.05
2023-05-09T11:15:08.344Z,101758.69
2023-05-09T11:17:45.457Z,101744.51
2023-05-09T11:20:17.111Z,101749.14
2023-05-09T11:22:50.174Z,101740.08
2023-05-09T11:25:34.589Z,101736.95
2023-05-09T11:28:28.688Z,101725.05
2023-05-09T11:31:22.977Z,101725.36
2023-05-09T11:34:08.036Z,101724.02
2023-05-09T11:36:52.662Z,101714.45
2023-05-09T11:39:33.490Z,101704.09
2023-05-09T11:42:13.424Z,101707.48
2023-05-09T11:44:51.487Z,101698.85
2023-05-09T11:47:31.181Z,101691.36
2023-05-09T11:50:18.125Z,101686.64
2023-05-09T11:52:56.747Z,101684.58
2023-05-09T11:55:39.268Z,101679.72
2023-05-09T11:58:17.740Z,101671.27
2023-05-09T12:00:57.042Z,101672.61
2023-05-09T12:03:35.641Z,101666.64
2023-05-09T12:06:19.387Z,101669.00
2023-05-09T12:08:59.691Z,101670.46
2023-05-09T12:11:38.584Z,101667.47
2023-05-09T12:14:29.171Z,101653.80
2023-05-09T12:17:08.043Z,101661.54
2023-05-09T12:19:46.300Z,101652.76
2023-05-09T12:22:25.328Z,101645.65
2023-05-09T12:25:05.533Z,101648.60
2023-05-09T12:27:44.786Z,101644.52
2023-05-09T12:30:23.563Z,101637.77
2023-05-09T12:33:02.652Z,101642.14
2023-05-09T12:35:43.021Z,101630.57
2023-05-09T12:38:41.184Z,101630.46
2023-05-09T12:41:30.977Z,101625.74
2023-05-09T12:44:34.280Z,101625.98
2023-05-09T12:47:08.071Z,101614.49
2023-05-09T12:49:51.173Z,101599.81
2023-05-09T12:52:36.807Z,101608.33
2023-05-09T12:55:18.324Z,101601.81
2023-05-09T12:58:09.466Z,101596.95
2023-05-09T13:00:50.525Z,101601.27
2023-05-09T13:03:41.568Z,101597.39
2023-05-09T13:06:19.723Z,101592.00
2023-05-09T13:09:07.180Z,101585.83
2023-05-09T13:11:48.073Z,101588.10
2023-05-09T13:14:28.538Z,101589.56
2023-05-09T13:17:08.576Z,101580.04
2023-05-09T13:19:47.279Z,101578.95
2023-05-09T13:22:25.497Z,101580.23
2023-05-09T13:25:03.905Z,101576.84
2023-05-09T13:27:42.134Z,101574.50
2023-05-09T13:30:21.202Z,101573.22
2023-05-09T13:33:12.793Z,101565.58
2023-05-09T13:36:01.596Z,101552.85
2023-05-09T13:38:41.065Z,101554.34
2023-05-09T13:41:25.991Z,101549.41
2023-05-09T13:44:04.401Z,101551.47
2023-05-09T13:46:43.641Z,101556.35
2023-05-09T13:49:22.408Z,101553.51
2023-05-09T13:52:00.734Z,101550.57
2023-05-09T13:54:38.020Z,101541.27
2023-05-09T13:57:10.345Z,101535.77
2023-05-09T13:59:49.202Z,101541.66
2023-05-09T14:02:25.134Z,101542.89
2023-05-09T14:05:04.593Z,101536.64
2023-05-09T14:07:43.489Z,101531.33
2023-05-09T14:10:22.806Z,101523.47
2023-05-09T14:13:01.575Z,101523.33
2023-05-09T14:15:40.627Z,101509.88
2023-05-09T14:18:20.945Z,101512.24
2023-05-09T14:21:00.674Z,101513.19
2023-05-09T14:23:40.583Z,101510.87
2023-05-09T14:26:20.010Z,101506.44
2023-05-09T14:28:59.509Z,101509.35
2023-05-09T14:31:39.479Z,101507.69
2023-05-09T14:34:18.771Z,101505.02
2023-05-09T14:36:57.951Z,101497.05
2023-05-09T14:39:36.094Z,101499.71
2023-05-09T14:42:17.196Z,101497.84
2023-05-09T14:44:49.251Z,101499.94
2023-05-09T14:47:28.072Z,101498.23
2023-05-09T14:50:07.814Z,101499.72
2023-05-09T14:52:47.203Z,101499.09
2023-05-09T14:55:31.540Z,101497.73
2023-05-09T14:58:05.638Z,101496.64
2023-05-09T15:00:42.476Z,101492.11
2023-05-09T15:03:21.972Z,101487.17
2023-05-09T15:06:02.264Z,101477.69
2023-05-09T15:08:41.580Z,101483.22
2023-05-09T15:11:23.983Z,101468.90
2023-05-09T15:14:06.883Z,101478.37
2023-05-09T15:16:44.624Z,101462.73
2023-05-09T15:19:23.412Z,101461.75
2023-05-09T15:22:08.905Z,101461.46
2023-05-09T15:24:46.892Z,101462.39
2023-05-09T15:27:25.788Z,101465.58
2023-05-09T15:30:05.228Z,101451.75
2023-05-09T15:32:51.903Z,101454.60
2023-05-09T15:35:29.808Z,101457.20
2023-05-09T15:38:14.455Z,101452.09
2023-05-09T15:40:44.825Z,101447.98
2023-05-09T15:43:15.797Z,101442.48
2023-05-09T15:45:52.761Z,101431.38
2023-05-09T15:48:29.191Z,101445.96
2023-05-09T15:51:07.806Z,101444.50
2023-05-09T15:53:39.639Z,101443.27
2023-05-09T15:56:16.579Z,101440.64
2023-05-09T15:58:53.709Z,101442.73
2023-05-09T16:01:33.299Z,101433.58
2023-05-09T16:04:14.381Z,101435.81
2023-05-09T16:06:52.349Z,101433.73
2023-05-09T16:09:29.938Z,101428.79
2023-05-09T16:12:07.948Z,101423.48
2023-05-09T16:14:38.404Z,101417.91
2023-05-09T16:17:13.851Z,101415.73
2023-05-09T16:19:51.804Z,101416.98
2023-05-09T16:22:29.658Z,101415.73
2023-05-09T16:25:08.499Z,101413.48
2023-05-09T16:27:46.602Z,101407.36
2023-05-09T16:30:23.529Z,101405.39
2023-05-09T16:33:00.781Z,101404.16
2023-05-09T16:35:36.333Z,101402.61
2023-05-09T16:38:13.515Z,101401.27
2023-05-09T16:40:51.421Z,101398.39
2023-05-09T16:43:29.661Z,101395.52
2023-05-09T16:46:09.004Z,101390.88
2023-05-09T16:48:47.541Z,101389.13
2023-05-09T16:51:25.527Z,101384.84
2023-05-09T16:54:04.051Z,101387.96
2023-05-09T16:56:35.816Z,101388.83
2023-05-09T16:59:14.324Z,101381.92
2023-05-09T17:01:54.213Z,101378.59
2023-05-09T17:04:32.967Z,101381.08
2023-05-09T17:07:13.277Z,101378.90
2023-05-09T17:09:52.335Z,101380.55
2023-05-09T17:12:30.815Z,101383.86
2023-05-09T17:15:15.010Z,101381.58
2023-05-09T17:17:53.415Z,101379.46
2023-05-09T17:20:32.956Z,101376.17
2023-05-09T17:23:12.528Z,101378.48
2023-05-09T17:25:50.814Z,101378.10
2023-05-09T17:28:29.921Z,101379.27
2023-05-09T17:31:10.359Z,101375.34
2023-05-09T17:33:49.472Z,101377.91
2023-05-09T17:36:27.979Z,101372.40
2023-05-09T17:39:08.750Z,101371.55
2023-05-09T17:41:44.998Z,101369.73
2023-05-09T17:44:18.991Z,101368.98
2023-05-09T17:46:57.937Z,101374.67
2023-05-09T17:49:35.374Z,101373.95
2023-05-09T17:52:14.025Z,101376.70
2023-05-09T17:54:51.919Z,101379.19
2023-05-09T17:57:29.415Z,101380.64
2023-05-09T18:00:11.641Z,101380.93
2023-05-09T18:02:51.264Z,101381.73
2023-05-09T18:05:29.569Z,101382.73
2023-05-09T18:08:08.433Z,101378.46
2023-05-09T18:10:46.883Z,101374.89
2023-05-09T18:13:27.155Z,101377.77
2023-05-09T18:16:02.172Z,101389.48
2023-05-09T18:18:37.835Z,101387.17
2023-05-09T18:21:12.156Z,101379.50
2023-05-09T18:23:49.467Z,101384.08
2023-05-09T18:26:27.892Z,101387.02
2023-05-09T18:29:05.794Z,101392.64
2023-05-09T18:31:43.639Z,101388.84
2023-05-09T18:34:21.112Z,101387.60
2023-05-09T18:37:00.170Z,101388.13
2023-05-09T18:39:38.409Z,101392.21
2023-05-09T18:42:16.530Z,101394.03
2023-05-09T18:44:54.135Z,101395.10
2023-05-09T18:47:29.652Z,101399.92
2023-05-09T18:50:09.269Z,101400.63
2023-05-09T18:52:48.183Z,101399.52
2023-05-09T18:55:21.199Z,101402.73
2023-05-09T18:58:02.888Z,101404.94
2023-05-09T19:00:40.093Z,101402.15
2023-05-09T19:03:18.061Z,101387.17
2023-05-09T19:05:55.896Z,101395.48
2023-05-09T19:08:33.044Z,101403.65
2023-05-09T19:11:12.871Z,101402.96
2023-05-09T19:13:53.136Z,101400.44
2023-05-09T19:16:31.413Z,101395.84
2023-05-09T19:19:10.729Z,101392.92
2023-05-09T19:21:50.258Z,101394.70
2023-05-09T19:24:28.994Z,101392.75
2023-05-09T19:27:08.206Z,101392.01
2023-05-09T19:29:40.824Z,101396.16
2023-05-09T19:32:18.340Z,101392.95
2023-05-09T19:34:56.305Z,101391.36
2023-05-09T19:37:34.097Z,101389.23
2023-05-09T19:40:12.588Z,101386.56
2023-05-09T19:42:50.633Z,101384.47
2023-05-09T19:45:29.452Z,101387.09
2023-05-09T19:48:00.994Z,101388.27
2023-05-09T19:50:38.829Z,101385.33
2023-05-09T19:53:16.353Z,101386.13
2023-05-09T19:55:56.911Z,101387.92
2023-05-09T19:58:34.757Z,101386.71
2023-05-09T20:01:13.532Z,101388.73
2023-05-09T20:03:52.601Z,101385.08
2023-05-09T20:06:30.486Z,101379.48
2023-05-09T20:09:09.411Z,101388.20
2023-05-09T20:11:46.645Z,101391.58
2023-05-09T20:14:25.202Z,101389.90
2023-05-09T20:17:02.853Z,101389.52
2023-05-09T20:19:34.586Z,101388.64
2023-05-09T20:22:12.581Z,101390.65
2023-05-09T20:24:50.521Z,101391.28
2023-05-09T20:27:22.584Z,101392.04
2023-05-09T20:29:59.221Z,101388.81
2023-05-09T20:32:36.904Z,101388.06
2023-05-09T20:35:14.597Z,101387.02
2023-05-09T20:37:52.263Z,101384.65
2023-05-09T20:40:29.676Z,101387.34
2023-05-09T20:43:07.099Z,101382.63
2023-05-09T20:45:42.145Z,101380.04
2023-05-09T20:48:25.149Z,101379.80
2023-05-09T20:51:02.862Z,101379.65
2023-05-09T20:53:40.038Z,101371.60
2023-05-09T20:56:17.527Z,101383.23
2023-05-09T20:58:54.879Z,101381.10
2023-05-09T21:01:40.373Z,101380.23
2023-05-09T21:04:18.292Z,101379.92
2023-05-09T21:06:48.620Z,101380.68
2023-05-09T21:09:23.480Z,101378.79
2023-05-09T21:11:53.510Z,101380.77
2023-05-09T21:14:30.947Z,101376.15
2023-05-09T21:17:08.695Z,101374.55
2023-05-09T21:19:46.037Z,101375.55
2023-05-09T21:22:16.788Z,101373.73
2023-05-09T21:24:49.299Z,101377.77
2023-05-09T21:27:23.916Z,101373.67
2023-05-09T21:29:59.205Z,101377.26
2023-05-09T21:32:36.850Z,101379.21
2023-05-09T21:35:15.610Z,101377.88
2023-05-09T21:37:53.412Z,101381.23
2023-05-09T21:40:30.710Z,101378.33
2023-05-09T21:43:09.066Z,101375.30
2023-05-09T21:45:46.070Z,101375.94
2023-05-09T21:48:16.204Z,101377.25
2023-05-09T21:50:54.069Z,101378.63
2023-05-09T21:53:25.606Z,101381.05
2023-05-09T21:56:02.965Z,101382.39
2023-05-09T21:58:40.105Z,101380.75
2023-05-09T22:01:20.492Z,101380.55
2023-05-09T22:03:57.999Z,101379.83
2023-05-09T22:06:36.253Z,101381.09
2023-05-09T22:09:13.393Z,101377.11
2023-05-09T22:11:50.556Z,101382.95
2023-05-09T22:14:20.520Z,101380.58
2023-05-09T22:16:59.795Z,101385.40
2023-05-09T22:19:38.436Z,101382.80
2023-05-09T22:22:17.221Z,101385.59
2023-05-09T22:24:54.540Z,101383.98
2023-05-09T22:27:26.002Z,101382.21
2023-05-09T22:32:33.691Z,101375.69
2023-05-09T22:35:13.271Z,101365.22
2023-05-09T22:37:49.915Z,101373.64
2023-05-09T22:40:27.099Z,101371.23
2023-05-09T22:43:04.020Z,101366.98
2023-05-09T22:45:40.764Z,101371.27
2023-05-09T22:48:11.846Z,101366.64
2023-05-09T22:50:42.846Z,101366.94
2023-05-09T22:53:21.167Z,101369.94
2023-05-09T22:55:59.039Z,101373.78
2023-05-09T22:58:35.955Z,101373.01
2023-05-09T23:01:13.182Z,101373.45
2023-05-09T23:03:51.963Z,101373.30
2023-05-09T23:06:30.409Z,101372.77
2023-05-09T23:09:08.031Z,101370.25
2023-05-09T23:11:44.854Z,101360.76
2023-05-09T23:14:19.933Z,101366.33
2023-05-09T23:16:51.107Z,101365.44
2023-05-09T23:19:28.793Z,101365.98
2023-05-09T23:22:06.222Z,101365.38
2023-05-09T23:24:43.204Z,101368.30
2023-05-09T23:27:20.533Z,101343.56
2023-05-09T23:29:57.271Z,101365.27
2023-05-09T23:32:34.127Z,101368.36
2023-05-09T23:35:12.012Z,101366.83
2023-05-09T23:37:48.107Z,101365.81
2023-05-09T23:40:18.498Z,101366.63
2023-05-09T23:42:51.719Z,101364.64
2023-05-09T23:45:28.811Z,101363.57
2023-05-09T23:48:05.707Z,101361.79
2023-05-09T23:50:38.673Z,101365.27
2023-05-09T23:53:15.492Z,101359.76
2023-05-09T23:55:51.391Z,101357.75
2023-05-09T23:58:27.772Z,101353.91
